createdAt,value
2022-10-23T00:00:34.052Z,24.95
2022-10-23T00:01:39.331Z,24.95
2022-10-23T00:02:41.815Z,24.09
2022-10-23T00:03:44.768Z,23.88
2022-10-23T00:04:52.098Z,22.23
2022-10-23T00:05:54.134Z,22.32
2022-10-23T00:06:56.335Z,23.21
2022-10-23T00:07:59.660Z,25.06
2022-10-23T00:09:06.232Z,24.35
2022-10-23T00:10:09.892Z,25.33
2022-10-23T00:11:14.385Z,23.56
2022-10-23T00:12:18.624Z,23.78
2022-10-23T00:13:20.550Z,23.01
2022-10-23T00:14:24.231Z,21.45
2022-10-23T00:15:26.514Z,21.70
2022-10-23T00:16:29.107Z,20.25
2022-10-23T00:17:31.165Z,19.57
2022-10-23T00:18:33.761Z,19.95
2022-10-23T00:19:35.670Z,18.25
2022-10-23T00:20:38.081Z,16.30
2022-10-23T00:21:40.211Z,16.96
2022-10-23T00:22:42.356Z,17.73
2022-10-23T00:23:45.339Z,18.64
2022-10-23T00:24:47.296Z,18.66
2022-10-23T00:25:49.979Z,18.53
2022-10-23T00:26:52.210Z,21.49
2022-10-23T00:27:54.146Z,19.19
2022-10-23T00:28:56.394Z,19.68
2022-10-23T00:29:58.667Z,20.58
2022-10-23T00:31:02.173Z,23.46
2022-10-23T00:32:04.236Z,25.01
2022-10-23T00:33:06.223Z,32.22
2022-10-23T00:34:08.285Z,38.19
2022-10-23T00:35:10.601Z,35.24
2022-10-23T00:36:18.111Z,33.78
2022-10-23T00:37:20.448Z,31.78
2022-10-23T00:38:22.651Z,29.91
2022-10-23T00:39:24.789Z,28.73
2022-10-23T00:40:28.044Z,27.69
2022-10-23T00:41:30.365Z,29.71
2022-10-23T00:42:32.415Z,30.89
2022-10-23T00:43:35.576Z,35.89
2022-10-23T00:44:41.241Z,37.86
2022-10-23T00:45:43.183Z,35.62
2022-10-23T00:46:45.855Z,39.16
2022-10-23T00:48:59.131Z,34.67
2022-10-23T00:50:01.726Z,35.16
2022-10-23T00:51:03.931Z,37.95
2022-10-23T00:52:09.130Z,40.07
2022-10-23T00:53:12.956Z,47.54
2022-10-23T00:54:25.443Z,47.31
2022-10-23T00:55:23.184Z,45.69
2022-10-23T00:56:26.091Z,42.82
2022-10-23T00:58:30.223Z,39.37
2022-10-23T00:59:33.166Z,34.89
2022-10-23T01:00:48.212Z,31.94
2022-10-23T01:01:50.480Z,29.81
2022-10-23T01:02:54.113Z,32.93
2022-10-23T01:03:56.215Z,32.94
2022-10-23T01:04:58.588Z,37.25
2022-10-23T01:06:16.714Z,34.55
2022-10-23T01:07:24.936Z,25.56
2022-10-23T01:08:33.758Z,26.97
2022-10-23T01:09:45.471Z,26.76
2022-10-23T01:10:51.446Z,29.33
2022-10-23T01:12:00.327Z,31.23
2022-10-23T01:13:08.869Z,30.71
2022-10-23T01:15:36.607Z,34.31
2022-10-23T01:16:45.348Z,29.86
2022-10-23T01:17:57.091Z,27.44
2022-10-23T01:19:02.855Z,24.26
2022-10-23T01:20:08.813Z,22.69
2022-10-23T01:21:20.674Z,22.96
2022-10-23T01:24:09.681Z,24.41
2022-10-23T01:25:36.521Z,23.05
2022-10-23T01:27:16.374Z,23.33
2022-10-23T01:30:44.049Z,18.95
2022-10-23T01:32:05.045Z,18.89
2022-10-23T01:33:16.785Z,18.98
2022-10-23T01:34:22.571Z,20.83
2022-10-23T01:35:31.084Z,20.79
2022-10-23T01:36:35.917Z,23.19
2022-10-23T01:39:01.231Z,26.34
2022-10-23T01:40:07.358Z,24.51
2022-10-23T01:42:35.094Z,28.27
2022-10-23T01:43:46.823Z,30.60
2022-10-23T01:44:55.446Z,37.33
2022-10-23T01:46:01.132Z,37.51
2022-10-23T01:47:06.395Z,38.61
2022-10-23T01:48:12.073Z,40.49
2022-10-23T01:49:16.587Z,44.10
2022-10-23T01:50:21.356Z,38.92
2022-10-23T01:51:26.541Z,41.84
2022-10-23T01:52:28.924Z,35.69
2022-10-23T01:53:34.900Z,32.23
2022-10-23T01:54:40.322Z,30.16
2022-10-23T01:55:43.482Z,25.89
2022-10-23T01:56:49.251Z,27.07
2022-10-23T01:57:53.258Z,31.95
2022-10-23T01:58:57.693Z,31.62
2022-10-23T02:00:03.374Z,28.04
2022-10-23T02:01:07.114Z,26.41
2022-10-23T02:02:12.791Z,26.55
2022-10-23T02:03:17.117Z,30.14
2022-10-23T02:04:22.888Z,30.36
2022-10-23T02:05:27.881Z,32.48
2022-10-23T02:06:30.222Z,31.98
2022-10-23T02:07:32.840Z,35.16
2022-10-23T02:08:35.150Z,34.63
2022-10-23T02:09:37.411Z,34.73
2022-10-23T02:10:43.246Z,33.79
2022-10-23T02:13:13.687Z,33.50
2022-10-23T02:15:37.790Z,24.38
2022-10-23T02:16:51.990Z,22.60
2022-10-23T02:18:03.550Z,21.71
2022-10-23T02:19:24.512Z,19.86
2022-10-23T02:20:48.844Z,19.22
2022-10-23T02:22:15.900Z,19.29
2022-10-23T02:23:30.899Z,18.47
2022-10-23T02:24:36.791Z,18.74
2022-10-23T02:25:42.511Z,19.07
2022-10-23T02:26:57.513Z,19.84
2022-10-23T02:28:03.237Z,19.30
2022-10-23T02:29:11.711Z,19.38
2022-10-23T02:30:16.512Z,19.01
2022-10-23T02:31:21.533Z,18.73
2022-10-23T02:32:27.240Z,19.48
2022-10-23T02:33:30.292Z,19.04
2022-10-23T02:34:32.616Z,24.38
2022-10-23T02:35:35.272Z,26.92
2022-10-23T02:36:38.462Z,31.69
2022-10-23T02:37:40.726Z,34.83
2022-10-23T02:38:44.835Z,30.43
2022-10-23T02:39:47.434Z,23.58
2022-10-23T02:40:50.431Z,22.29
2022-10-23T02:41:59.217Z,21.61
2022-10-23T02:43:07.823Z,18.70
2022-10-23T02:44:31.952Z,19.38
2022-10-23T02:45:46.891Z,19.56
2022-10-23T02:47:26.452Z,18.58
2022-10-23T02:48:35.312Z,18.31
2022-10-23T02:49:49.881Z,18.70
2022-10-23T02:51:02.314Z,18.35
2022-10-23T02:52:24.686Z,18.66
2022-10-23T02:53:33.309Z,18.73
2022-10-23T02:54:47.825Z,18.72
2022-10-23T02:55:59.321Z,20.27
2022-10-23T02:57:07.824Z,20.08
2022-10-23T02:58:25.409Z,25.61
2022-10-23T02:59:36.852Z,30.12
2022-10-23T03:00:42.667Z,29.92
2022-10-23T03:01:55.104Z,33.44
2022-10-23T03:05:16.479Z,38.80
2022-10-23T03:06:19.834Z,43.17
2022-10-23T03:07:22.002Z,47.93
2022-10-23T03:08:24.472Z,56.50
2022-10-23T03:09:26.992Z,65.73
2022-10-23T03:10:28.963Z,59.41
2022-10-23T03:11:31.031Z,57.91
2022-10-23T03:12:32.909Z,58.40
2022-10-23T03:13:34.894Z,60.57
2022-10-23T03:14:37.195Z,66.07
2022-10-23T03:15:39.071Z,64.54
2022-10-23T03:16:41.079Z,68.52
2022-10-23T03:17:43.444Z,76.83
2022-10-23T03:18:45.449Z,68.83
2022-10-23T03:19:47.367Z,59.45
2022-10-23T03:20:49.687Z,43.69
2022-10-23T03:21:51.576Z,36.75
2022-10-23T03:22:53.464Z,38.06
2022-10-23T03:23:55.521Z,33.47
2022-10-23T03:24:57.403Z,29.76
2022-10-23T03:26:00.106Z,29.15
2022-10-23T03:27:02.218Z,29.96
2022-10-23T03:28:04.095Z,26.75
2022-10-23T03:29:06.372Z,25.97
2022-10-23T03:30:10.006Z,25.38
2022-10-23T03:31:11.899Z,25.76
2022-10-23T03:32:13.818Z,24.53
2022-10-23T03:33:15.816Z,24.05
2022-10-23T03:34:17.710Z,26.07
2022-10-23T03:35:19.577Z,38.34
2022-10-23T03:36:21.646Z,43.98
2022-10-23T03:37:23.751Z,43.67
2022-10-23T03:38:25.743Z,44.56
2022-10-23T03:39:27.930Z,43.63
2022-10-23T03:40:30.117Z,42.63
2022-10-23T03:41:32.206Z,42.96
2022-10-23T03:42:34.307Z,46.71
2022-10-23T03:43:36.379Z,41.75
2022-10-23T03:44:38.267Z,41.67
2022-10-23T03:45:40.373Z,35.44
2022-10-23T03:46:42.352Z,31.33
2022-10-23T03:47:44.645Z,28.75
2022-10-23T03:48:46.770Z,25.91
2022-10-23T03:49:48.652Z,30.39
2022-10-23T03:50:51.107Z,37.53
2022-10-23T03:51:53.315Z,38.33
2022-10-23T03:52:55.797Z,35.35
2022-10-23T03:53:58.681Z,31.93
2022-10-23T03:55:01.155Z,28.33
2022-10-23T03:56:04.508Z,27.76
2022-10-23T03:57:06.400Z,31.51
2022-10-23T03:58:08.269Z,33.55
2022-10-23T03:59:10.170Z,37.53
2022-10-23T04:00:14.166Z,42.25
2022-10-23T04:01:16.431Z,38.29
2022-10-23T04:02:18.715Z,35.91
2022-10-23T04:03:20.794Z,37.46
2022-10-23T04:04:22.812Z,34.31
2022-10-23T04:05:24.711Z,33.55
2022-10-23T04:06:26.749Z,28.31
2022-10-23T04:07:28.816Z,24.99
2022-10-23T04:08:30.692Z,24.32
2022-10-23T04:09:32.693Z,23.57
2022-10-23T04:10:34.687Z,25.17
2022-10-23T04:11:36.886Z,26.17
2022-10-23T04:12:38.778Z,31.69
2022-10-23T04:13:40.654Z,33.57
2022-10-23T04:14:43.129Z,34.95
2022-10-23T04:15:52.920Z,37.80
2022-10-23T04:16:55.030Z,42.91
2022-10-23T04:17:56.910Z,44.69
2022-10-23T04:18:58.995Z,45.89
2022-10-23T04:20:01.403Z,52.22
2022-10-23T04:21:03.584Z,46.29
2022-10-23T04:22:05.834Z,41.09
2022-10-23T04:23:08.156Z,43.91
2022-10-23T04:24:10.427Z,40.65
2022-10-23T04:25:12.507Z,44.19
2022-10-23T04:26:14.592Z,39.97
2022-10-23T04:27:16.490Z,41.08
2022-10-23T04:28:18.664Z,41.26
2022-10-23T04:29:25.729Z,41.17
2022-10-23T04:30:30.937Z,44.38
2022-10-23T04:31:35.500Z,38.67
2022-10-23T04:32:37.398Z,37.41
2022-10-23T04:33:47.572Z,40.19
2022-10-23T04:36:32.958Z,33.86
2022-10-23T04:37:35.962Z,32.61
2022-10-23T04:38:37.897Z,31.21
2022-10-23T04:39:39.821Z,28.13
2022-10-23T04:40:45.902Z,25.01
2022-10-23T04:41:51.125Z,28.92
2022-10-23T04:44:09.118Z,22.69
2022-10-23T04:45:27.930Z,22.85
2022-10-23T04:46:22.486Z,23.12
2022-10-23T04:48:54.380Z,23.74
2022-10-23T04:49:57.801Z,24.40
2022-10-23T04:51:03.917Z,24.13
2022-10-23T04:52:06.030Z,23.64
2022-10-23T04:53:08.734Z,25.49
2022-10-23T04:54:10.613Z,25.55
2022-10-23T04:55:12.896Z,25.30
2022-10-23T04:56:15.089Z,24.45
2022-10-23T04:57:17.082Z,25.77
2022-10-23T04:58:19.056Z,24.23
2022-10-23T04:59:21.323Z,23.71
2022-10-23T05:00:23.615Z,23.98
2022-10-23T05:01:25.713Z,23.16
2022-10-23T05:02:27.712Z,24.07
2022-10-23T05:03:29.717Z,25.14
2022-10-23T05:04:32.056Z,23.93
2022-10-23T05:05:33.939Z,24.31
2022-10-23T05:06:36.232Z,24.65
2022-10-23T05:07:38.233Z,25.27
2022-10-23T05:08:40.173Z,25.45
2022-10-23T05:09:42.359Z,23.75
2022-10-23T05:10:44.605Z,24.29
2022-10-23T05:11:46.584Z,23.65
2022-10-23T05:12:48.467Z,23.75
2022-10-23T05:13:50.694Z,25.14
2022-10-23T05:14:53.509Z,26.79
2022-10-23T05:15:58.002Z,26.24
2022-10-23T05:17:07.009Z,27.29
2022-10-23T05:18:12.683Z,26.08
2022-10-23T05:19:24.817Z,27.39
2022-10-23T05:20:30.596Z,26.27
2022-10-23T05:21:35.094Z,26.46
2022-10-23T05:22:40.153Z,26.02
2022-10-23T05:23:44.775Z,25.27
2022-10-23T05:24:50.472Z,24.28
2022-10-23T05:25:51.988Z,24.54
2022-10-23T05:26:54.059Z,23.84
2022-10-23T05:27:56.627Z,22.62
2022-10-23T05:29:00.053Z,23.69
2022-10-23T05:30:03.560Z,23.79
2022-10-23T05:31:06.234Z,21.45
2022-10-23T05:32:10.307Z,23.11
2022-10-23T05:33:13.097Z,23.84
2022-10-23T05:34:17.933Z,21.39
2022-10-23T05:35:22.583Z,22.78
2022-10-23T05:36:25.606Z,23.26
2022-10-23T05:37:28.226Z,23.57
2022-10-23T05:38:33.935Z,23.89
2022-10-23T05:39:36.255Z,24.51
2022-10-23T05:41:41.269Z,25.11
2022-10-23T05:42:43.906Z,24.21
2022-10-23T05:43:46.309Z,24.09
2022-10-23T05:44:48.448Z,24.78
2022-10-23T05:45:50.316Z,24.58
2022-10-23T05:46:52.522Z,23.53
2022-10-23T05:47:56.550Z,24.38
2022-10-23T05:50:01.302Z,24.24
2022-10-23T05:51:08.706Z,25.83
2022-10-23T05:52:11.759Z,25.48
2022-10-23T05:53:15.611Z,27.86
2022-10-23T05:54:17.762Z,29.34
2022-10-23T05:55:19.984Z,33.56
2022-10-23T05:56:22.152Z,40.22
2022-10-23T05:57:24.044Z,42.47
2022-10-23T05:58:26.253Z,41.89
2022-10-23T05:59:28.212Z,41.55
2022-10-23T06:00:31.462Z,49.07
2022-10-23T06:01:33.656Z,51.01
2022-10-23T06:02:35.837Z,53.05
2022-10-23T06:03:39.193Z,51.09
2022-10-23T06:04:41.110Z,46.00
2022-10-23T06:05:51.598Z,46.28
2022-10-23T06:06:54.035Z,45.08
2022-10-23T06:08:00.579Z,44.67
2022-10-23T06:09:03.992Z,50.75
2022-10-23T06:10:08.398Z,48.81
2022-10-23T06:11:13.262Z,47.69
2022-10-23T06:12:15.484Z,38.90
2022-10-23T06:13:17.422Z,36.46
2022-10-23T06:14:19.411Z,33.83
2022-10-23T06:15:21.304Z,31.07
2022-10-23T06:16:24.187Z,35.03
2022-10-23T06:17:27.813Z,37.81
2022-10-23T06:18:29.709Z,30.01
2022-10-23T06:19:33.010Z,30.05
2022-10-23T06:20:36.555Z,26.89
2022-10-23T06:21:39.677Z,27.27
2022-10-23T06:22:42.094Z,28.11
2022-10-23T06:23:45.663Z,29.11
2022-10-23T06:24:47.753Z,33.39
2022-10-23T06:25:51.186Z,36.37
2022-10-23T06:26:53.309Z,55.14
2022-10-23T06:27:55.198Z,52.11
2022-10-23T06:28:57.559Z,52.62
2022-10-23T06:29:59.484Z,55.85
2022-10-23T06:31:07.042Z,54.36
2022-10-23T06:32:09.170Z,55.12
2022-10-23T06:33:11.057Z,56.23
2022-10-23T06:34:14.024Z,57.63
2022-10-23T06:35:16.340Z,54.86
2022-10-23T06:36:18.884Z,59.41
2022-10-23T06:37:20.838Z,55.27
2022-10-23T06:38:23.052Z,55.31
2022-10-23T06:39:27.364Z,50.87
2022-10-23T06:40:30.043Z,47.54
2022-10-23T06:41:33.011Z,52.82
2022-10-23T06:42:35.030Z,51.60
2022-10-23T06:43:38.624Z,55.15
2022-10-23T06:44:40.731Z,60.54
2022-10-23T06:45:42.645Z,64.29
2022-10-23T06:46:44.672Z,71.67
2022-10-23T06:47:51.776Z,77.23
2022-10-23T06:48:53.708Z,77.26
2022-10-23T06:49:55.643Z,61.36
2022-10-23T06:50:58.755Z,52.07
2022-10-23T06:52:00.685Z,45.88
2022-10-23T06:53:03.212Z,41.73
2022-10-23T06:54:05.266Z,38.33
2022-10-23T06:55:08.374Z,37.36
2022-10-23T06:56:11.797Z,40.93
2022-10-23T06:57:13.909Z,37.63
2022-10-23T06:58:15.832Z,36.08
2022-10-23T06:59:18.028Z,30.64
2022-10-23T07:00:20.571Z,30.40
2022-10-23T07:01:22.661Z,26.20
2022-10-23T07:02:24.794Z,23.51
2022-10-23T07:03:27.232Z,21.28
2022-10-23T07:04:29.465Z,21.65
2022-10-23T07:05:32.176Z,19.91
2022-10-23T07:06:34.282Z,20.24
2022-10-23T07:07:36.493Z,20.01
2022-10-23T07:08:38.746Z,19.11
2022-10-23T07:09:40.938Z,20.80
2022-10-23T07:10:43.326Z,18.33
2022-10-23T07:11:45.393Z,19.18
2022-10-23T07:12:47.601Z,19.86
2022-10-23T07:13:49.845Z,19.13
2022-10-23T07:14:51.914Z,20.17
2022-10-23T07:15:54.257Z,20.91
2022-10-23T07:16:56.412Z,20.97
2022-10-23T07:17:58.470Z,21.53
2022-10-23T07:19:00.641Z,21.07
2022-10-23T07:20:03.695Z,20.84
2022-10-23T07:21:06.305Z,21.61
2022-10-23T07:22:10.737Z,21.29
2022-10-23T07:23:12.740Z,19.66
2022-10-23T07:24:14.981Z,20.31
2022-10-23T07:25:17.610Z,19.19
2022-10-23T07:26:19.805Z,19.36
2022-10-23T07:27:22.055Z,19.89
2022-10-23T07:28:24.324Z,18.88
2022-10-23T07:29:26.781Z,19.74
2022-10-23T07:30:28.974Z,18.74
2022-10-23T07:31:31.156Z,19.69
2022-10-23T07:32:33.450Z,19.44
2022-10-23T07:33:36.399Z,18.58
2022-10-23T07:34:38.574Z,18.57
2022-10-23T07:35:41.054Z,18.97
2022-10-23T07:36:43.366Z,20.33
2022-10-23T07:37:45.867Z,19.01
2022-10-23T07:38:49.438Z,19.42
2022-10-23T07:39:51.517Z,19.01
2022-10-23T07:40:56.510Z,21.06
2022-10-23T07:41:58.722Z,21.01
2022-10-23T07:43:03.759Z,20.33
2022-10-23T07:44:06.013Z,19.81
2022-10-23T07:46:20.246Z,20.16
2022-10-23T07:47:22.425Z,20.22
2022-10-23T07:48:24.582Z,21.43
2022-10-23T07:49:26.639Z,21.64
2022-10-23T07:50:29.003Z,22.38
2022-10-23T07:51:31.342Z,21.71
2022-10-23T07:52:36.029Z,22.75
2022-10-23T07:53:39.410Z,25.38
2022-10-23T07:54:43.444Z,24.56
2022-10-23T07:55:57.858Z,26.11
2022-10-23T07:57:00.713Z,26.71
2022-10-23T07:58:02.901Z,25.38
2022-10-23T07:59:05.079Z,24.39
2022-10-23T08:01:33.235Z,24.26
2022-10-23T08:02:36.079Z,22.28
2022-10-23T08:03:38.317Z,22.95
2022-10-23T08:04:40.546Z,22.49
2022-10-23T08:05:42.790Z,22.61
2022-10-23T08:06:45.023Z,23.64
2022-10-23T08:07:50.219Z,25.65
2022-10-23T08:08:52.385Z,26.93
2022-10-23T08:09:54.512Z,26.18
2022-10-23T08:10:57.671Z,24.97
2022-10-23T08:12:03.744Z,23.61
2022-10-23T08:13:05.786Z,22.90
2022-10-23T08:14:08.998Z,21.59
2022-10-23T08:15:11.134Z,20.37
2022-10-23T08:16:13.646Z,23.57
2022-10-23T08:17:15.971Z,24.89
2022-10-23T08:18:19.429Z,29.78
2022-10-23T08:19:25.958Z,30.81
2022-10-23T08:20:28.532Z,31.31
2022-10-23T08:21:31.287Z,28.64
2022-10-23T08:22:33.679Z,25.31
2022-10-23T08:23:37.903Z,24.71
2022-10-23T08:24:40.282Z,22.84
2022-10-23T08:25:42.685Z,24.24
2022-10-23T08:26:44.966Z,22.76
2022-10-23T08:27:50.368Z,23.19
2022-10-23T08:28:54.350Z,23.97
2022-10-23T08:29:56.474Z,21.21
2022-10-23T08:31:00.594Z,20.77
2022-10-23T08:32:03.138Z,21.55
2022-10-23T08:33:06.513Z,21.42
2022-10-23T08:34:09.257Z,20.94
2022-10-23T12:53:58.424Z,5.57
2022-10-23T12:55:04.175Z,4.51
2022-10-23T12:56:07.105Z,4.87
2022-10-23T12:57:27.581Z,4.47
2022-10-23T12:58:34.535Z,3.80
2022-10-23T12:59:38.420Z,4.67
2022-10-23T13:00:45.308Z,4.88
2022-10-23T13:01:52.437Z,4.61
2022-10-23T13:03:03.679Z,5.55
2022-10-23T13:04:20.124Z,4.36
2022-10-23T13:05:26.046Z,3.70
2022-10-23T13:06:29.053Z,3.94
2022-10-23T13:07:34.203Z,4.43
2022-10-23T13:08:43.127Z,4.24
2022-10-23T13:09:46.634Z,3.74
2022-10-23T13:10:49.675Z,3.59
2022-10-23T13:11:52.288Z,3.86
2022-10-23T13:12:57.548Z,3.81
2022-10-23T13:13:59.602Z,3.53
2022-10-23T13:15:11.141Z,4.03
2022-10-23T13:16:23.352Z,3.74
2022-10-23T13:17:45.918Z,3.46
2022-10-23T13:18:49.782Z,3.37
2022-10-23T13:19:51.878Z,3.75
2022-10-23T13:20:57.447Z,3.37
2022-10-23T13:22:00.583Z,3.34
2022-10-23T13:23:11.815Z,3.89
2022-10-23T13:24:19.762Z,3.67
2022-10-23T13:25:33.597Z,3.56
2022-10-23T13:26:38.881Z,4.14
2022-10-23T13:27:41.742Z,3.68
2022-10-23T13:28:45.327Z,3.92
2022-10-23T13:29:47.619Z,3.60
2022-10-23T13:31:13.473Z,3.31
2022-10-23T13:32:24.287Z,3.54
2022-10-23T13:33:36.018Z,3.48
2022-10-23T13:34:38.349Z,3.32
2022-10-23T13:35:40.723Z,3.68
2022-10-23T13:36:53.267Z,3.41
2022-10-23T13:37:53.938Z,3.37
2022-10-23T13:39:11.862Z,3.68
2022-10-23T13:40:26.490Z,3.42
2022-10-23T13:41:40.901Z,3.96
2022-10-23T13:42:43.418Z,3.71
2022-10-23T13:43:47.672Z,3.95
2022-10-23T13:44:50.178Z,4.06
2022-10-23T13:45:52.667Z,3.69
2022-10-23T13:46:55.961Z,3.60
2022-10-23T13:47:58.322Z,3.92
2022-10-23T13:49:00.629Z,3.99
2022-10-23T13:50:03.308Z,3.86
2022-10-23T13:51:21.204Z,4.15
2022-10-23T13:52:23.523Z,3.73
2022-10-23T13:53:25.788Z,3.61
2022-10-23T13:55:31.085Z,3.65
2022-10-23T13:56:33.449Z,3.56
2022-10-23T13:57:35.395Z,3.73
2022-10-23T13:58:37.610Z,3.72
2022-10-23T13:59:40.016Z,4.07
2022-10-23T14:00:45.622Z,3.83
2022-10-23T14:01:49.922Z,3.73
2022-10-23T14:02:52.231Z,4.49
2022-10-23T14:03:56.200Z,4.28
2022-10-23T14:04:58.187Z,3.49
2022-10-23T14:06:00.491Z,4.17
2022-10-23T14:07:03.242Z,3.92
2022-10-23T14:08:06.157Z,4.39
2022-10-23T14:09:12.118Z,4.03
2022-10-23T14:10:15.148Z,4.64
2022-10-23T14:11:19.543Z,4.12
2022-10-23T14:12:21.723Z,4.55
2022-10-23T14:13:24.173Z,4.35
2022-10-23T14:14:26.386Z,4.23
2022-10-23T14:15:28.632Z,4.59
2022-10-23T14:16:31.445Z,4.67
2022-10-23T14:17:35.275Z,4.65
2022-10-23T14:18:37.682Z,5.22
2022-10-23T14:19:43.264Z,4.23
2022-10-23T14:20:46.069Z,4.12
2022-10-23T14:21:48.363Z,4.07
2022-10-23T14:22:50.476Z,4.59
2022-10-23T14:23:53.831Z,4.46
2022-10-23T14:24:56.386Z,4.37
2022-10-23T14:26:07.411Z,4.81
2022-10-23T14:27:09.629Z,5.33
2022-10-23T14:28:11.677Z,5.13
2022-10-23T14:29:21.259Z,4.31
2022-10-23T14:30:18.472Z,4.72
2022-10-23T14:31:21.238Z,4.62
2022-10-23T14:32:23.615Z,4.71
2022-10-23T14:33:25.698Z,5.74
2022-10-23T14:34:27.627Z,5.11
2022-10-23T14:35:29.880Z,4.63
2022-10-23T14:36:38.798Z,4.66
2022-10-23T14:37:36.446Z,4.52
2022-10-23T14:38:38.869Z,5.31
2022-10-23T14:39:40.919Z,5.47
2022-10-23T14:40:43.501Z,4.73
2022-10-23T14:41:46.803Z,4.80
2022-10-23T14:42:49.068Z,5.83
2022-10-23T14:43:54.837Z,5.11
2022-10-23T14:44:57.354Z,5.21
2022-10-23T14:46:08.108Z,5.13
2022-10-23T14:47:13.335Z,4.74
2022-10-23T14:48:15.941Z,5.06
2022-10-23T14:49:18.230Z,4.83
2022-10-23T14:50:20.818Z,4.85
2022-10-23T14:53:37.676Z,5.47
2022-10-23T14:54:39.745Z,5.03
2022-10-23T14:55:41.841Z,5.20
2022-10-23T14:56:44.224Z,4.87
2022-10-23T14:57:46.374Z,5.28
2022-10-23T14:58:48.913Z,5.39
2022-10-23T14:59:51.283Z,4.99
2022-10-23T15:00:58.537Z,5.21
2022-10-23T15:02:00.859Z,5.31
2022-10-23T15:03:03.204Z,5.19
2022-10-23T15:04:06.922Z,4.91
2022-10-23T15:05:09.358Z,5.47
2022-10-23T15:06:16.042Z,4.62
2022-10-23T15:07:21.799Z,5.11
2022-10-23T15:08:24.540Z,6.03
2022-10-23T15:09:27.093Z,6.20
2022-10-23T15:10:29.844Z,5.68
2022-10-23T15:11:32.563Z,5.52
2022-10-23T15:12:36.388Z,5.29
2022-10-23T15:13:38.869Z,5.85
2022-10-23T15:14:41.956Z,4.92
2022-10-23T15:15:44.615Z,5.64
2022-10-23T15:16:47.487Z,4.85
2022-10-23T15:17:49.758Z,5.03
2022-10-23T15:18:53.604Z,4.92
2022-10-23T15:19:55.956Z,4.81
2022-10-23T15:20:59.202Z,5.35
2022-10-23T15:22:01.782Z,5.60
2022-10-23T15:23:04.852Z,5.11
2022-10-23T15:24:07.161Z,5.58
2022-10-23T15:25:11.279Z,5.67
2022-10-23T15:26:16.951Z,5.28
2022-10-23T15:27:20.543Z,5.69
2022-10-23T15:28:23.627Z,5.46
2022-10-23T15:29:25.999Z,5.65
2022-10-23T15:30:29.692Z,5.63
2022-10-23T15:31:39.209Z,5.67
2022-10-23T15:32:41.768Z,5.30
2022-10-23T15:33:44.860Z,6.01
2022-10-23T15:34:48.061Z,5.83
2022-10-23T15:35:51.665Z,6.01
2022-10-23T15:36:56.189Z,5.53
2022-10-23T15:37:59.821Z,6.05
2022-10-23T15:39:09.031Z,6.22
2022-10-23T15:40:12.409Z,6.21
2022-10-23T15:41:18.335Z,6.32
2022-10-23T15:42:20.818Z,6.07
2022-10-23T15:43:22.979Z,6.44
2022-10-23T15:44:27.778Z,6.83
2022-10-23T15:45:31.524Z,7.38
2022-10-23T15:46:34.214Z,7.29
2022-10-23T15:47:36.154Z,7.04
2022-10-23T15:48:38.398Z,6.53
2022-10-23T15:49:40.990Z,6.97
2022-10-23T15:50:43.338Z,6.91
2022-10-23T15:51:46.242Z,6.81
2022-10-23T15:52:48.635Z,7.22
2022-10-23T15:53:51.126Z,7.42
2022-10-23T15:54:53.413Z,7.18
2022-10-23T15:55:55.611Z,7.10
2022-10-23T15:56:58.038Z,9.09
2022-10-23T15:58:00.505Z,8.56
2022-10-23T15:59:02.694Z,7.55
2022-10-23T16:00:07.758Z,6.50
2022-10-23T16:01:10.433Z,6.38
2022-10-23T16:02:12.967Z,6.70
2022-10-23T16:03:15.433Z,6.88
2022-10-23T16:04:18.133Z,6.16
2022-10-23T16:05:20.607Z,6.08
2022-10-23T16:06:22.958Z,6.53
2022-10-23T16:07:25.589Z,7.10
2022-10-23T16:08:28.046Z,6.12
2022-10-23T16:09:30.121Z,6.53
2022-10-23T16:10:32.829Z,6.23
2022-10-23T16:11:37.287Z,5.67
2022-10-23T16:12:40.090Z,6.89
2022-10-23T16:13:42.500Z,5.97
2022-10-23T16:14:45.065Z,6.14
2022-10-23T16:15:47.943Z,5.81
2022-10-23T16:16:50.705Z,6.89
2022-10-23T16:17:53.459Z,6.32
2022-10-23T16:19:01.103Z,6.79
2022-10-23T16:20:04.169Z,6.41
2022-10-23T16:21:07.642Z,6.33
2022-10-23T16:22:10.052Z,6.68
2022-10-23T16:23:12.523Z,6.21
2022-10-23T16:24:14.811Z,6.34
2022-10-23T16:25:17.150Z,6.21
2022-10-23T16:26:20.600Z,6.58
2022-10-23T16:27:22.913Z,7.05
2022-10-23T16:28:25.403Z,6.89
2022-10-23T16:29:27.999Z,7.17
2022-10-23T16:30:30.948Z,7.06
2022-10-23T16:31:33.804Z,6.54
2022-10-23T16:32:36.012Z,6.78
2022-10-23T16:33:39.027Z,6.53
2022-10-23T16:34:41.931Z,6.92
2022-10-23T16:35:44.238Z,6.95
2022-10-23T16:36:47.479Z,7.21
2022-10-23T16:37:49.821Z,7.56
2022-10-23T16:38:52.295Z,6.91
2022-10-23T16:39:54.424Z,7.45
2022-10-23T16:40:56.721Z,7.56
2022-10-23T16:41:58.900Z,6.53
2022-10-23T16:43:01.322Z,6.84
2022-10-23T16:44:04.476Z,7.07
2022-10-23T16:45:08.603Z,6.91
2022-10-23T16:46:14.281Z,6.18
2022-10-23T16:47:16.812Z,7.19
2022-10-23T16:48:19.011Z,6.27
2022-10-23T16:49:21.440Z,5.99
2022-10-23T16:50:23.948Z,6.71
2022-10-23T16:51:26.542Z,6.39
2022-10-23T16:52:28.758Z,6.61
2022-10-23T16:53:31.155Z,6.29
2022-10-23T16:54:33.561Z,6.56
2022-10-23T16:55:39.513Z,5.67
2022-10-23T16:56:43.032Z,5.58
2022-10-23T16:57:45.456Z,5.71
2022-10-23T16:58:47.705Z,6.23
2022-10-23T16:59:51.589Z,5.91
2022-10-23T17:01:09.889Z,5.60
2022-10-23T17:02:12.585Z,5.96
2022-10-23T17:03:15.218Z,5.65
2022-10-23T17:04:17.717Z,5.50
2022-10-23T17:05:19.964Z,5.70
2022-10-23T17:06:29.135Z,5.37
2022-10-23T17:07:32.250Z,5.63
2022-10-23T17:08:35.462Z,6.17
2022-10-23T17:09:37.652Z,5.67
2022-10-23T17:10:39.894Z,5.75
2022-10-23T17:11:44.485Z,5.57
2022-10-23T17:12:46.676Z,5.49
2022-10-23T17:13:58.539Z,5.19
2022-10-23T17:14:59.200Z,5.63
2022-10-23T17:16:16.262Z,5.57
2022-10-23T17:17:18.858Z,5.54
2022-10-23T17:18:21.245Z,4.86
2022-10-23T17:19:43.717Z,5.52
2022-10-23T17:20:30.139Z,5.26
2022-10-23T17:21:35.556Z,6.01
2022-10-23T17:22:39.817Z,4.94
2022-10-23T17:23:42.653Z,5.16
2022-10-23T17:24:47.470Z,5.17
2022-10-23T17:25:49.085Z,5.61
2022-10-23T17:26:51.994Z,5.29
2022-10-23T17:27:55.461Z,5.37
2022-10-23T17:28:59.457Z,5.41
2022-10-23T17:30:03.968Z,5.48
2022-10-23T17:31:16.040Z,5.48
2022-10-23T17:32:18.788Z,4.73
2022-10-23T17:33:22.963Z,4.97
2022-10-23T17:34:25.736Z,5.35
2022-10-23T17:35:28.063Z,5.32
2022-10-23T17:36:32.858Z,5.24
2022-10-23T17:37:34.906Z,5.87
2022-10-23T17:38:39.566Z,5.45
2022-10-23T17:39:42.162Z,5.28
2022-10-23T17:41:48.796Z,5.32
2022-10-23T17:42:51.103Z,5.34
2022-10-23T17:43:57.953Z,5.61
2022-10-23T17:44:59.947Z,5.34
2022-10-23T17:46:06.768Z,5.37
2022-10-23T17:47:10.582Z,5.05
2022-10-23T17:48:13.496Z,5.29
2022-10-23T17:49:15.412Z,5.34
2022-10-23T17:50:18.286Z,5.67
2022-10-23T17:51:23.090Z,5.35
2022-10-23T17:52:25.008Z,5.74
2022-10-23T17:53:27.129Z,5.37
2022-10-23T17:54:29.489Z,5.65
2022-10-23T17:55:39.749Z,5.51
2022-10-23T17:56:42.179Z,5.44
2022-10-23T17:57:47.171Z,5.31
2022-10-23T17:58:50.999Z,5.12
2022-10-23T17:59:52.933Z,5.39
2022-10-23T18:00:55.280Z,6.12
2022-10-23T18:01:57.313Z,5.09
2022-10-23T18:02:59.439Z,5.81
2022-10-23T18:04:04.331Z,5.53
2022-10-23T18:05:07.651Z,5.35
2022-10-23T18:06:12.854Z,5.65
2022-10-23T18:07:15.297Z,5.33
2022-10-23T18:08:17.776Z,5.03
2022-10-23T18:09:22.496Z,5.64
2022-10-23T18:10:28.353Z,5.39
2022-10-23T18:11:34.195Z,5.14
2022-10-23T18:12:36.752Z,5.54
2022-10-23T18:13:38.825Z,5.32
2022-10-23T18:14:40.709Z,5.51
2022-10-23T18:15:42.692Z,5.68
2022-10-23T18:16:44.888Z,5.55
2022-10-23T18:17:48.709Z,5.21
2022-10-23T18:18:51.333Z,5.32
2022-10-23T18:19:54.342Z,5.20
2022-10-23T18:20:58.927Z,5.25
2022-10-23T18:22:01.280Z,5.11
2022-10-23T18:23:03.260Z,5.60
2022-10-23T18:24:05.971Z,5.24
2022-10-23T18:25:09.355Z,4.92
2022-10-23T18:26:20.812Z,5.78
2022-10-23T18:27:23.132Z,5.31
2022-10-23T18:28:26.392Z,5.22
2022-10-23T18:29:28.494Z,5.42
2022-10-23T18:30:30.548Z,5.39
2022-10-23T18:31:34.308Z,5.52
2022-10-23T18:32:36.225Z,6.98
2022-10-23T18:33:38.286Z,5.56
2022-10-23T18:34:40.171Z,5.30
2022-10-23T18:35:42.985Z,5.94
2022-10-23T18:36:45.626Z,4.91
2022-10-23T18:37:49.854Z,4.92
2022-10-23T18:38:52.587Z,5.62
2022-10-23T18:39:54.707Z,5.26
2022-10-23T18:40:58.355Z,5.78
2022-10-23T18:42:00.458Z,5.49
2022-10-23T18:43:07.010Z,5.97
2022-10-23T18:44:11.692Z,4.98
2022-10-23T18:45:14.405Z,5.07